createdAt,value
2018-05-07T00:01:47.299Z,96776.10
2018-05-07T00:04:13.151Z,96780.55
2018-05-07T00:06:39.025Z,96779.63
2018-05-07T00:09:04.966Z,96776.16
2018-05-07T00:11:30.741Z,96778.22
2018-05-07T00:13:58.312Z,96773.88
2018-05-07T00:16:24.161Z,96769.58
2018-05-07T00:18:52.987Z,96766.75
2018-05-07T00:21:18.806Z,96759.02
2018-05-07T00:23:47.598Z,96759.25
2018-05-07T00:26:13.446Z,96762.36
2018-05-07T00:28:42.444Z,96759.79
2018-05-07T00:31:08.290Z,96770.40
2018-05-07T00:33:36.842Z,96758.14
2018-05-07T00:36:02.769Z,96761.59
2018-05-07T00:40:59.722Z,96762.71
2018-05-07T00:43:25.613Z,96767.18
2018-05-07T00:45:51.496Z,96762.34
2018-05-07T00:48:17.295Z,96760.18
2018-05-07T00:50:44.316Z,96767.65
2018-05-07T00:53:10.178Z,96761.27
2018-05-07T00:55:39.328Z,96761.87
2018-05-07T00:58:05.218Z,96768.02
2018-05-07T01:00:33.081Z,96774.60
2018-05-07T01:02:58.923Z,96762.91
2018-05-07T01:05:27.582Z,96767.58
2018-05-07T01:07:53.433Z,96767.11
2018-05-07T01:10:22.201Z,96769.91
2018-05-07T01:12:48.083Z,96768.61
2018-05-07T01:17:44.766Z,96763.58
2018-05-07T01:20:10.622Z,96765.98
2018-05-07T01:22:36.508Z,96765.06
2018-05-07T01:25:02.430Z,96768.62
2018-05-07T01:27:28.750Z,96774.69
2018-05-07T01:29:54.579Z,96773.83
2018-05-07T01:32:24.428Z,96770.83
2018-05-07T01:34:50.316Z,96777.13
2018-05-07T01:37:18.486Z,96781.23
2018-05-07T01:39:44.359Z,96777.27
2018-05-07T01:42:13.193Z,96773.47
2018-05-07T01:44:39.156Z,96772.80
2018-05-07T01:47:08.524Z,96771.78
2018-05-07T01:49:34.380Z,96774.20
2018-05-07T01:52:03.446Z,96772.44
2018-05-07T01:54:29.284Z,96773.19
2018-05-07T01:56:55.177Z,96775.02
2018-05-07T01:59:21.031Z,96773.88
2018-05-07T02:01:46.857Z,96766.23
2018-05-07T02:04:15.866Z,96769.70
2018-05-07T02:06:41.716Z,96772.31
2018-05-07T02:09:09.033Z,96768.52
2018-05-07T02:11:34.910Z,96765.12
2018-05-07T02:14:04.055Z,96769.86
2018-05-07T02:16:29.913Z,96770.97
2018-05-07T02:18:58.894Z,96774.50
2018-05-07T02:21:24.763Z,96773.30
2018-05-07T02:23:53.932Z,96773.03
2018-05-07T02:26:19.791Z,96770.55
2018-05-07T02:28:47.898Z,96767.30
2018-05-07T02:31:13.795Z,96766.95
2018-05-07T02:33:39.696Z,96762.41
2018-05-07T02:36:05.627Z,96757.53
2018-05-07T02:38:31.577Z,96756.09
2018-05-07T02:41:01.227Z,96757.08
2018-05-07T02:43:27.128Z,96750.55
2018-05-07T02:45:54.532Z,96754.14
2018-05-07T02:48:20.442Z,96755.19
2018-05-07T02:50:49.563Z,96750.08
2018-05-07T02:53:15.463Z,96745.92
2018-05-07T02:55:44.411Z,96747.05
2018-05-07T02:58:10.316Z,96743.27
2018-05-07T03:00:40.208Z,96747.68
2018-05-07T03:03:06.079Z,96749.31
2018-05-07T03:05:35.142Z,96752.41
2018-05-07T03:08:01.048Z,96747.12
2018-05-07T03:10:26.991Z,96752.70
2018-05-07T03:12:53.032Z,96749.03
2018-05-07T03:15:18.937Z,96753.11
2018-05-07T03:17:44.861Z,96749.34
2018-05-07T03:20:10.766Z,96743.22
2018-05-07T03:22:39.895Z,96740.89
2018-05-07T03:25:05.848Z,96743.62
2018-05-07T03:27:35.558Z,96742.23
2018-05-07T03:30:01.452Z,96742.32
2018-05-07T03:32:30.725Z,96738.83
2018-05-07T03:34:56.577Z,96744.84
2018-05-07T03:37:25.590Z,96742.23
2018-05-07T03:39:51.472Z,96740.58
2018-05-07T03:42:18.447Z,96742.29
2018-05-07T03:44:44.348Z,96741.03
2018-05-07T03:47:10.240Z,96745.95
2018-05-07T03:49:36.143Z,96737.38
2018-05-07T03:52:02.035Z,96734.89
2018-05-07T03:54:31.007Z,96740.69
2018-05-07T03:56:56.956Z,96742.81
2018-05-07T03:59:26.012Z,96739.05
2018-05-07T04:01:51.890Z,96738.95
2018-05-07T04:04:20.873Z,96741.66
2018-05-07T04:06:46.771Z,96742.16
2018-05-07T04:09:15.955Z,96737.20
2018-05-07T04:11:41.851Z,96741.64
2018-05-07T04:14:09.193Z,96740.30
2018-05-07T04:16:47.397Z,96736.42
2018-05-07T04:19:25.617Z,96738.56
2018-05-07T04:22:04.011Z,96741.66
2018-05-07T04:24:29.913Z,96747.31
2018-05-07T04:26:55.824Z,96739.63
2018-05-07T04:29:21.714Z,96743.12
2018-05-07T04:31:47.627Z,96737.56
2018-05-07T04:34:13.510Z,96735.80
2018-05-07T04:36:39.447Z,96730.26
2018-05-07T04:39:05.382Z,96736.56
2018-05-07T04:41:31.287Z,96733.73
2018-05-07T04:43:57.140Z,96735.00
2018-05-07T04:46:23.039Z,96732.14
2018-05-07T04:48:48.997Z,96735.86
2018-05-07T04:51:14.820Z,96742.34
2018-05-07T04:53:40.721Z,96737.58
2018-05-07T04:56:06.595Z,96740.18
2018-05-07T04:58:32.518Z,96747.20
2018-05-07T05:00:58.418Z,96753.03
2018-05-07T05:03:24.359Z,96750.27
2018-05-07T05:05:50.263Z,96755.39
2018-05-07T05:08:16.135Z,96750.77
2018-05-07T05:10:42.008Z,96750.70
2018-05-07T05:13:07.935Z,96753.82
2018-05-07T05:15:33.861Z,96754.05
2018-05-07T05:17:59.801Z,96754.05
2018-05-07T05:20:25.678Z,96756.11
2018-05-07T05:22:51.585Z,96752.92
2018-05-07T05:25:17.488Z,96755.45
2018-05-07T05:27:43.399Z,96749.23
2018-05-07T05:30:09.323Z,96754.06
2018-05-07T05:32:35.895Z,96754.55
2018-05-07T05:35:01.813Z,96752.44
2018-05-07T05:37:27.716Z,96766.84
2018-05-07T05:39:53.625Z,96763.38
2018-05-07T05:42:19.523Z,96756.34
2018-05-07T05:44:46.187Z,96756.36
2018-05-07T05:47:12.052Z,96764.36
2018-05-07T05:49:40.860Z,96757.52
2018-05-07T05:52:06.788Z,96748.00
2018-05-07T05:54:36.644Z,96753.59
2018-05-07T05:57:02.553Z,96758.11
2018-05-07T05:59:30.292Z,96756.45
2018-05-07T06:01:56.176Z,96753.52
2018-05-07T06:04:25.496Z,96752.88
2018-05-07T06:06:51.398Z,96754.41
2018-05-07T06:09:20.751Z,96763.44
2018-05-07T06:11:46.691Z,96758.11
2018-05-07T06:14:12.625Z,96749.54
2018-05-07T06:16:38.553Z,96754.50
2018-05-07T06:19:04.446Z,96758.58
2018-05-07T06:21:31.886Z,96757.92
2018-05-07T06:23:57.814Z,96741.61
2018-05-07T06:26:26.802Z,96756.92
2018-05-07T06:28:52.702Z,96754.75
2018-05-07T06:31:21.670Z,96752.50
2018-05-07T06:33:47.599Z,96753.45
2018-05-07T06:36:16.557Z,96755.25
2018-05-07T06:38:42.465Z,96750.97
2018-05-07T06:41:10.643Z,96754.35
2018-05-07T06:43:36.524Z,96755.91
2018-05-07T06:46:05.828Z,96752.42
2018-05-07T06:48:31.658Z,96756.34
2018-05-07T06:50:57.533Z,96755.00
2018-05-07T06:53:23.432Z,96749.44
2018-05-07T06:55:49.368Z,96754.02
2018-05-07T06:58:16.702Z,96746.91
2018-05-07T07:00:42.615Z,96747.08
2018-05-07T07:03:11.909Z,96750.19
2018-05-07T07:05:37.807Z,96736.06
2018-05-07T07:08:07.062Z,96737.37
2018-05-07T07:10:32.852Z,96734.08
2018-05-07T07:13:00.898Z,96738.16
2018-05-07T07:15:26.951Z,96737.41
2018-05-07T07:17:56.294Z,96740.70
2018-05-07T07:20:22.177Z,96742.19
2018-05-07T07:22:51.572Z,96742.39
2018-05-07T07:25:17.454Z,96744.67
2018-05-07T07:27:43.341Z,96740.38
2018-05-07T07:30:09.247Z,96744.94
2018-05-07T07:32:35.166Z,96747.56
2018-05-07T07:35:02.896Z,96746.81
2018-05-07T07:37:28.800Z,96747.09
2018-05-07T07:39:57.940Z,96744.76
2018-05-07T07:42:23.851Z,96741.64
2018-05-07T07:44:52.880Z,96743.19
2018-05-07T07:47:18.847Z,96739.14
2018-05-07T07:49:47.839Z,96735.78
2018-05-07T07:52:13.730Z,96736.41
2018-05-07T07:54:40.928Z,96741.93
2018-05-07T07:57:06.816Z,96744.44
2018-05-07T07:59:35.858Z,96744.30
2018-05-07T08:02:01.743Z,96735.47
2018-05-07T08:04:27.638Z,96739.45
2018-05-07T08:06:53.582Z,96729.64
2018-05-07T08:09:19.462Z,96734.40
2018-05-07T08:11:49.095Z,96731.67
2018-05-07T08:14:14.958Z,96728.78
2018-05-07T08:16:42.132Z,96731.39
2018-05-07T08:19:08.024Z,96729.62
2018-05-07T08:21:37.273Z,96726.52
2018-05-07T08:24:03.152Z,96719.23
2018-05-07T08:26:32.579Z,96720.50
2018-05-07T08:28:58.460Z,96726.23
2018-05-07T08:31:25.980Z,96727.42
2018-05-07T08:33:51.854Z,96721.63
2018-05-07T08:36:20.473Z,96722.00
2018-05-07T08:38:46.372Z,96721.21
2018-05-07T08:41:12.257Z,96723.23
2018-05-07T08:43:38.175Z,96716.92
2018-05-07T08:46:04.076Z,96716.58
2018-05-07T08:48:33.728Z,96720.78
2018-05-07T08:50:59.696Z,96715.06
2018-05-07T08:53:28.838Z,96719.14
2018-05-07T08:55:54.739Z,96716.09
2018-05-07T08:58:23.871Z,96711.54
2018-05-07T09:00:49.758Z,96713.59
2018-05-07T09:03:17.575Z,96713.95
2018-05-07T09:05:43.490Z,96715.50
2018-05-07T09:08:12.538Z,96707.36
2018-05-07T09:10:38.513Z,96708.30
2018-05-07T09:13:06.361Z,96707.06
2018-05-07T09:15:32.268Z,96698.25
2018-05-07T09:17:58.129Z,96699.92
2018-05-07T09:20:24.035Z,96702.09
2018-05-07T09:22:49.943Z,96692.53
2018-05-07T09:25:18.363Z,96695.29
2018-05-07T09:27:44.260Z,96695.57
2018-05-07T09:30:14.179Z,96692.91
2018-05-07T09:32:40.064Z,96696.30
2018-05-07T09:35:09.096Z,96691.06
2018-05-07T09:37:34.996Z,96687.02
2018-05-07T09:40:03.962Z,96684.33
2018-05-07T09:42:29.835Z,96688.36
2018-05-07T09:44:56.859Z,96676.30
2018-05-07T09:47:22.734Z,96678.59
2018-05-07T09:49:51.489Z,96675.12
2018-05-07T09:52:17.476Z,96682.12
2018-05-07T09:54:43.314Z,96675.31
2018-05-07T09:57:09.287Z,96661.75
2018-05-07T09:59:35.125Z,96663.63
2018-05-07T10:02:04.177Z,96644.47
2018-05-07T10:04:30.058Z,96660.67
2018-05-07T10:06:59.006Z,96657.99
2018-05-07T10:09:24.880Z,96663.45
2018-05-07T10:11:52.707Z,96656.61
2018-05-07T10:14:18.639Z,96667.02
2018-05-07T10:16:48.305Z,96658.41
2018-05-07T10:19:14.242Z,96650.41
2018-05-07T10:21:42.135Z,96662.94
2018-05-07T10:24:08.074Z,96643.97
2018-05-07T10:26:37.812Z,96642.81
2018-05-07T10:29:03.671Z,96650.12
2018-05-07T10:31:29.579Z,96643.12
2018-05-07T10:33:55.479Z,96631.17
2018-05-07T10:36:21.367Z,96635.50
2018-05-07T10:38:49.288Z,96636.08
2018-05-07T10:41:15.221Z,96627.70
2018-05-07T10:43:44.252Z,96617.95
2018-05-07T10:46:10.180Z,96611.59
2018-05-07T10:48:38.019Z,96613.45
2018-05-07T10:51:03.923Z,96610.53
2018-05-07T10:53:33.829Z,96606.40
2018-05-07T10:55:59.735Z,96606.64
2018-05-07T10:58:27.402Z,96605.25
2018-05-07T11:00:53.285Z,96594.31
2018-05-07T11:03:22.680Z,96589.02
2018-05-07T11:05:48.552Z,96595.56
2018-05-07T11:08:14.427Z,96592.61
2018-05-07T11:10:40.414Z,96585.23
2018-05-07T11:13:06.311Z,96582.72
2018-05-07T11:15:35.526Z,96574.33
2018-05-07T11:18:01.451Z,96568.72
2018-05-07T11:20:29.182Z,96568.92
2018-05-07T11:22:55.124Z,96563.54
2018-05-07T11:25:24.735Z,96556.42
2018-05-07T11:27:50.605Z,96565.52
2018-05-07T11:30:19.796Z,96558.77
2018-05-07T11:32:45.671Z,96553.42
2018-05-07T11:35:13.516Z,96553.38
2018-05-07T11:37:39.406Z,96556.86
2018-05-07T11:40:09.279Z,96549.02
2018-05-07T11:42:35.193Z,96552.19
2018-05-07T11:45:01.195Z,96551.28
2018-05-07T11:47:27.101Z,96546.19
2018-05-07T11:49:52.983Z,96543.66
2018-05-07T11:52:19.678Z,96541.92
2018-05-07T11:54:45.621Z,96541.48
2018-05-07T11:57:15.468Z,96550.48
2018-05-07T11:59:41.365Z,96554.06
2018-05-07T12:02:08.826Z,96542.32
2018-05-07T12:04:34.724Z,96542.06
2018-05-07T12:07:03.091Z,96519.96
2018-05-07T12:09:29.010Z,96539.41
2018-05-07T12:11:57.622Z,96538.45
2018-05-07T12:14:23.589Z,96540.08
2018-05-07T12:16:52.515Z,96539.70
2018-05-07T12:19:18.438Z,96527.91
2018-05-07T12:21:44.439Z,96526.25
2018-05-07T12:24:10.371Z,96527.53
2018-05-07T12:26:36.319Z,96521.69
2018-05-07T12:29:05.429Z,96520.16
2018-05-07T12:31:31.465Z,96506.81
2018-05-07T12:33:59.208Z,96503.71
2018-05-07T12:36:25.111Z,96505.91
2018-05-07T12:38:54.109Z,96517.37
2018-05-07T12:41:20.035Z,96509.69
2018-05-07T12:43:49.783Z,96480.55
2018-05-07T12:46:15.687Z,96499.23
2018-05-07T12:48:43.321Z,96496.05
2018-05-07T12:51:09.229Z,96494.92
2018-05-07T12:53:38.071Z,96492.06
2018-05-07T12:56:03.963Z,96485.70
2018-05-07T12:58:29.902Z,96484.91
2018-05-07T13:00:55.797Z,96473.80
2018-05-07T13:03:21.664Z,96473.81
2018-05-07T13:05:51.510Z,96481.82
2018-05-07T13:08:17.402Z,96474.59
2018-05-07T13:10:46.341Z,96482.59
2018-05-07T13:13:12.235Z,96483.55
2018-05-07T13:15:39.154Z,96478.38
2018-05-07T13:18:05.085Z,96457.47
2018-05-07T13:20:34.405Z,96456.94
2018-05-07T13:23:00.306Z,96455.01
2018-05-07T13:25:30.094Z,96452.35
2018-05-07T13:27:56.067Z,96456.58
2018-05-07T13:30:23.769Z,96449.75
2018-05-07T13:32:49.679Z,96435.03
2018-05-07T13:35:15.567Z,96442.09
2018-05-07T13:37:41.476Z,96436.42
2018-05-07T13:40:07.368Z,96436.02
2018-05-07T13:42:36.654Z,96433.09
2018-05-07T13:45:02.595Z,96429.44
2018-05-07T13:47:31.534Z,96426.55
2018-05-07T13:49:57.419Z,96428.78
2018-05-07T13:52:25.270Z,96428.31
2018-05-07T13:54:51.171Z,96423.50
2018-05-07T13:57:21.011Z,96408.47
2018-05-07T13:59:46.897Z,96416.47
2018-05-07T14:02:13.937Z,96416.23
2018-05-07T14:04:39.799Z,96410.28
2018-05-07T14:07:08.647Z,96413.96
2018-05-07T14:09:34.522Z,96407.01
2018-05-07T14:12:00.449Z,96394.75
2018-05-07T14:14:26.435Z,96396.41
2018-05-07T14:16:52.328Z,96394.84
2018-05-07T14:19:21.760Z,96395.94
2018-05-07T14:21:47.639Z,96393.38
2018-05-07T14:24:15.471Z,96383.59
2018-05-07T14:26:41.378Z,96365.18
2018-05-07T14:29:09.980Z,96380.73
2018-05-07T14:31:35.911Z,96379.33
2018-05-07T14:34:04.563Z,96372.76
2018-05-07T14:36:30.490Z,96373.97
2018-05-07T14:38:59.603Z,96375.94
2018-05-07T14:41:25.465Z,96367.16
2018-05-07T14:43:55.430Z,96366.02
2018-05-07T14:46:21.353Z,96368.25
2018-05-07T14:48:47.275Z,96364.87
2018-05-07T14:51:13.230Z,96362.72
2018-05-07T14:53:39.162Z,96364.53
2018-05-07T14:56:06.267Z,96367.80
2018-05-07T14:58:32.179Z,96362.79
2018-05-07T15:01:01.213Z,96368.19
2018-05-07T15:03:27.163Z,96368.56
2018-05-07T15:05:55.017Z,96358.41
2018-05-07T15:08:20.993Z,96354.42
2018-05-07T15:10:49.982Z,96352.52
2018-05-07T15:13:15.890Z,96349.69
2018-05-07T15:15:44.603Z,96344.17
2018-05-07T15:18:10.505Z,96346.70
2018-05-07T15:20:39.499Z,96350.57
2018-05-07T15:23:05.412Z,96346.13
2018-05-07T15:25:31.333Z,96340.38
2018-05-07T15:27:57.243Z,96340.48
2018-05-07T15:30:23.143Z,96337.28
2018-05-07T15:32:52.119Z,96329.02
2018-05-07T15:35:17.973Z,96328.56
2018-05-07T15:37:47.111Z,96328.83
2018-05-07T15:40:13.047Z,96325.65
2018-05-07T15:42:42.151Z,96326.30
2018-05-07T15:45:08.018Z,96329.60
2018-05-07T15:47:36.977Z,96319.61
2018-05-07T15:50:02.862Z,96309.75
2018-05-07T15:52:30.715Z,96310.05
2018-05-07T15:54:56.659Z,96309.60
2018-05-07T15:57:24.474Z,96313.78
2018-05-07T15:59:50.373Z,96309.84
2018-05-07T16:02:16.246Z,96309.63
2018-05-07T16:04:42.153Z,96309.63
2018-05-07T16:07:08.059Z,96303.97
2018-05-07T16:09:37.936Z,96304.67
2018-05-07T16:12:03.880Z,96310.69
2018-05-07T16:14:31.491Z,96308.45
2018-05-07T16:16:57.424Z,96305.05
2018-05-07T16:19:27.338Z,96304.87
2018-05-07T16:21:53.256Z,96297.66
2018-05-07T16:24:20.974Z,96297.70
2018-05-07T16:26:46.937Z,96296.51
2018-05-07T16:29:16.065Z,96301.70
2018-05-07T16:31:41.983Z,96296.80
2018-05-07T16:34:11.322Z,96295.91
2018-05-07T16:36:37.190Z,96293.16
2018-05-07T16:39:03.185Z,96291.48
2018-05-07T16:41:29.055Z,96290.27
2018-05-07T16:43:54.950Z,96283.65
2018-05-07T16:46:21.431Z,96291.25
2018-05-07T16:48:47.419Z,96291.19
2018-05-07T16:51:16.259Z,96291.52
2018-05-07T16:53:42.158Z,96297.54
2018-05-07T16:56:11.100Z,96296.33
2018-05-07T16:58:37.028Z,96295.30
2018-05-07T17:01:05.983Z,96299.72
2018-05-07T17:03:31.934Z,96296.91
2018-05-07T17:06:00.879Z,96302.33
2018-05-07T17:08:26.812Z,96296.04
2018-05-07T17:10:55.902Z,96298.89
2018-05-07T17:13:21.841Z,96297.00
2018-05-07T17:15:47.759Z,96297.16
2018-05-07T17:18:13.635Z,96301.88
2018-05-07T17:20:39.547Z,96308.69
2018-05-07T17:23:07.343Z,96303.73
2018-05-07T17:25:33.227Z,96312.66
2018-05-07T17:28:02.455Z,96311.90
2018-05-07T17:30:28.349Z,96311.33
2018-05-07T17:32:56.366Z,96309.78
2018-05-07T17:35:22.255Z,96311.97
2018-05-07T17:37:51.363Z,96304.25
2018-05-07T17:40:17.248Z,96306.81
2018-05-07T17:42:46.532Z,96319.75
2018-05-07T17:58:45.463Z,96314.13
2018-05-07T18:01:11.360Z,96319.73
2018-05-07T18:03:37.283Z,96313.58
2018-05-07T18:06:03.207Z,96309.88
2018-05-07T18:08:32.253Z,96320.00
2018-05-07T18:10:59.903Z,96315.42
2018-05-07T18:13:25.806Z,96317.95
2018-05-07T18:15:52.527Z,96314.69
2018-05-07T18:18:18.409Z,96311.85
2018-05-07T18:20:44.330Z,96315.80
2018-05-07T18:23:10.233Z,96319.20
2018-05-07T18:25:36.983Z,96316.78
2018-05-07T18:28:02.906Z,96320.91
2018-05-07T18:30:32.482Z,96320.50
2018-05-07T18:32:58.379Z,96318.44
2018-05-07T18:35:28.048Z,96323.91
2018-05-07T18:37:54.011Z,96325.89
2018-05-07T18:40:21.461Z,96327.14
2018-05-07T18:42:47.378Z,96325.22
2018-05-07T18:45:17.001Z,96326.50
2018-05-07T18:47:42.936Z,96321.02
2018-05-07T18:50:08.840Z,96319.34
2018-05-07T18:52:34.763Z,96319.30
2018-05-07T18:55:00.675Z,96315.05
2018-05-07T18:57:27.495Z,96316.81
2018-05-07T18:59:53.423Z,96313.12
2018-05-07T19:02:23.090Z,96316.72
2018-05-07T19:04:49.000Z,96319.87
2018-05-07T19:07:18.094Z,96320.34
2018-05-07T19:09:44.420Z,96323.80
2018-05-07T19:12:13.433Z,96324.17
2018-05-07T19:14:39.778Z,96323.16
2018-05-07T19:17:06.453Z,96320.88
2018-05-07T19:19:32.316Z,96310.97
2018-05-07T19:22:02.071Z,96312.30
2018-05-07T19:24:28.012Z,96308.55
2018-05-07T19:26:53.948Z,96315.70
2018-05-07T19:29:19.851Z,96314.25
2018-05-07T19:31:45.747Z,96320.08
2018-05-07T19:34:13.250Z,96316.30
2018-05-07T19:36:39.152Z,96317.88
2018-05-07T19:39:08.441Z,96322.96
2018-05-07T19:41:34.295Z,96318.59
2018-05-07T19:44:02.476Z,96325.64
2018-05-07T19:46:28.390Z,96322.60
2018-05-07T19:48:57.760Z,96325.18
2018-05-07T19:51:23.672Z,96323.60
2018-05-07T19:53:51.991Z,96320.78
2018-05-07T19:56:17.907Z,96329.06
2018-05-07T19:58:47.468Z,96330.97
2018-05-07T20:01:13.427Z,96326.95
2018-05-07T20:03:39.361Z,96323.68
2018-05-07T20:06:05.303Z,96323.45
2018-05-07T20:08:31.244Z,96324.45
2018-05-07T20:10:57.928Z,96322.96
2018-05-07T20:13:23.916Z,96326.36
2018-05-07T20:15:52.861Z,96322.73
2018-05-07T20:18:18.825Z,96318.70
2018-05-07T20:20:48.564Z,96319.05
2018-05-07T20:23:14.427Z,96321.59
2018-05-07T20:25:43.964Z,96324.58
2018-05-07T20:28:09.897Z,96322.61
2018-05-07T20:30:37.690Z,96323.34
2018-05-07T20:33:03.649Z,96325.66
2018-05-07T20:35:32.037Z,96323.09
2018-05-07T20:49:19.492Z,96315.89
2018-05-07T20:51:45.448Z,96313.07
2018-05-07T20:54:11.354Z,96315.97
2018-05-07T20:56:37.291Z,96311.38
2018-05-07T20:59:03.228Z,96314.52
2018-05-07T21:01:29.207Z,96312.12
2018-05-07T21:03:55.106Z,96314.09
2018-05-07T21:06:21.007Z,96310.28
2018-05-07T21:08:46.876Z,96315.81
2018-05-07T21:11:12.745Z,96308.05
2018-05-07T21:13:38.679Z,96306.09
2018-05-07T21:16:04.553Z,96314.03
2018-05-07T21:18:30.503Z,96311.45
2018-05-07T21:20:56.444Z,96312.89
2018-05-07T21:23:22.359Z,96305.91
2018-05-07T21:25:48.300Z,96298.95
2018-05-07T21:28:14.173Z,96307.06
2018-05-07T21:30:40.181Z,96303.53
2018-05-07T21:33:06.122Z,96305.42
2018-05-07T21:35:32.014Z,96296.70
2018-05-07T21:37:57.955Z,96299.30
2018-05-07T21:40:23.849Z,96301.52
2018-05-07T21:42:49.771Z,96296.56
2018-05-07T21:45:18.531Z,96290.20
2018-05-07T21:47:44.403Z,96300.14
2018-05-07T21:50:13.324Z,96295.56
2018-05-07T21:52:39.263Z,96289.43
2018-05-07T21:55:08.281Z,96291.27
2018-05-07T21:57:34.220Z,96295.33
2018-05-07T22:00:03.568Z,96285.78
2018-05-07T22:02:29.484Z,96288.34
2018-05-07T22:04:58.467Z,96289.19
2018-05-07T22:07:24.412Z,96285.12
2018-05-07T22:09:50.339Z,96290.45
2018-05-07T22:12:16.280Z,96282.49
2018-05-07T22:14:42.972Z,96289.70
2018-05-07T22:17:09.334Z,96288.59
2018-05-07T22:19:35.262Z,96283.66
2018-05-07T22:22:04.442Z,96286.16
2018-05-07T22:24:30.332Z,96277.05
2018-05-07T22:26:59.159Z,96281.75
2018-05-07T22:29:25.079Z,96280.06
2018-05-07T22:31:54.951Z,96275.52
2018-05-07T22:34:20.848Z,96277.50
2018-05-07T22:36:49.789Z,96274.73
2018-05-07T22:39:15.723Z,96274.53
2018-05-07T22:41:44.734Z,96271.67
2018-05-07T22:44:10.633Z,96273.11
2018-05-07T22:46:36.517Z,96280.66
2018-05-07T22:49:02.520Z,96276.27
2018-05-07T22:51:28.335Z,96275.20
2018-05-07T22:53:55.205Z,96273.52
2018-05-07T22:56:21.163Z,96273.79
2018-05-07T22:58:49.508Z,96271.73
2018-05-07T23:01:15.388Z,96268.08
2018-05-07T23:03:44.674Z,96266.55
2018-05-07T23:06:10.609Z,96265.80
2018-05-07T23:08:39.788Z,96268.29
2018-05-07T23:11:05.696Z,96264.44
2018-05-07T23:13:33.880Z,96263.67
2018-05-07T23:15:59.766Z,96260.38
2018-05-07T23:18:29.659Z,96258.09
2018-05-07T23:20:55.609Z,96257.25
2018-05-07T23:23:21.523Z,96254.92
2018-05-07T23:25:47.397Z,96256.66
2018-05-07T23:28:13.288Z,96252.84
2018-05-07T23:30:40.162Z,96252.59
2018-05-07T23:33:06.072Z,96249.54
2018-05-07T23:35:35.804Z,96246.44
2018-05-07T23:38:01.732Z,96245.80
2018-05-07T23:40:31.115Z,96245.87
2018-05-07T23:42:57.030Z,96237.02
2018-05-07T23:45:24.506Z,96247.15
2018-05-07T23:47:50.379Z,96240.05
2018-05-07T23:50:19.640Z,96245.42
2018-05-07T23:52:45.543Z,96238.45
2018-05-07T23:55:14.627Z,96236.32
2018-05-07T23:57:40.563Z,96236.05
